El Salvador International Airport
MSLP : now visible

Airfield :











YOU CAN JOIN US ON...

 
LOGIN :

Register | Disclaimer

   EN    FR    IT 

 









Legend :    VFR   Marginal VFR   IFR   Intensive IFR   Very Intensive IFR
Visi :
Ceiling :
>= 8 km
>= 3000ft
5 to 8 km
1000 to 3000 ft
1500m to 5 km
500 to 1000 ft
800 to 1500m
200 to 500 ft
< 800m
< 200 ft
Symbols :   Thunderstorms  Fog  Heavy snow  Heavy precipitations  Wind > 20 kt







- Airport Elevation : 101 ft
- IATA code : SAL


MSLP - El Salvador International

CURRENT METAR :
  • 191550Z 24006KT 200V270 9999 FEW023 30/25 Q1010 A2985 NOSIG

EXPIRED METARs :
  • 191450Z VRB02KT 9999 FEW027 29/25 Q1010 A2985 NOSIG
  • 191413Z VRB01KT 9999 FEW023 28/25 Q1011 NOSIG
  • 191350Z VRB02KT 9999 FEW023 SCT077 26/25 Q1011 A2985 NOSIG

TAF TAF MSLP
Valid from the 19 at 12:00 until the 20 at 12:00 UTC


190925Z 1912/2012 03008KT 9999 FEW023 FEW033CB SCT060 TX32/1918Z TN24/2012Z
FM191800 25010KT 9999 SCT023 FEW033CB
FM200000 VRB03KT 9999 SCT023 SCT033CB
TEMPO 2003/2006 06010KT 4000 TSRA BKN020 BKN033CB
No reported NOTAMs for that airfield.



MET'MAP, your aeronautical weather chart ! - Copyright ORBIFLY December 2007 - Disclaimer

ORBIFLY MET'MAP TEAM :

Programming & Development : Alexandra Zaïnal
Concept & Development : Baudouin d'Aumeries
Co-Development & Prog : Marc-Olivier Méhu
Technical & hardware support : Manuel Goepfert

Contact : metmap@orbifly.com




SOURCES & CREDITS :

   NOAA       Earth
Advisory